createdAt,value
2017-04-10T00:00:34.258Z,46.88
2017-04-10T00:01:34.954Z,49.33
2017-04-10T00:02:35.030Z,48.78
2017-04-10T00:03:35.467Z,47.13
2017-04-10T00:04:35.508Z,49.32
2017-04-10T00:05:41.773Z,58.52
2017-04-10T00:06:41.823Z,49.92
2017-04-10T00:07:42.208Z,51.83
2017-04-10T00:08:42.266Z,47.92
2017-04-10T00:09:42.353Z,55.88
2017-04-10T00:10:42.390Z,55.72
2017-04-10T00:11:42.441Z,48.75
2017-04-10T00:12:42.525Z,48.88
2017-04-10T00:13:42.900Z,53.63
2017-04-10T00:14:43.750Z,51.33
2017-04-10T00:15:43.844Z,52.25
2017-04-10T00:16:44.681Z,49.93
2017-04-10T00:17:44.760Z,48.98
2017-04-10T00:18:45.089Z,50.80
2017-04-10T00:19:45.516Z,56.55
2017-04-10T00:20:45.567Z,50.90
2017-04-10T00:21:45.651Z,49.70
2017-04-10T00:22:45.915Z,50.93
2017-04-10T00:23:46.271Z,53.00
2017-04-10T00:24:46.320Z,53.37
2017-04-10T00:25:46.358Z,48.90
2017-04-10T00:26:47.149Z,56.20
2017-04-10T00:27:47.470Z,60.02
2017-04-10T00:28:48.018Z,53.35
2017-04-10T00:29:48.831Z,56.60
2017-04-10T00:30:49.601Z,59.35
2017-04-10T00:31:49.592Z,53.00
2017-04-10T00:32:49.720Z,50.15
2017-04-10T00:33:50.027Z,55.87
2017-04-10T00:34:50.161Z,51.52
2017-04-10T00:35:50.202Z,49.83
2017-04-10T00:36:50.229Z,53.87
2017-04-10T00:37:50.267Z,56.20
2017-04-10T00:38:51.975Z,59.98
2017-04-10T00:39:52.001Z,58.72
2017-04-10T00:40:52.042Z,58.93
2017-04-10T00:41:52.459Z,62.53
2017-04-10T00:42:52.517Z,55.48
2017-04-10T00:43:52.930Z,54.67
2017-04-10T00:44:52.944Z,47.65
2017-04-10T00:45:54.654Z,64.95
2017-04-10T00:46:54.726Z,54.12
2017-04-10T00:47:54.739Z,64.02
2017-04-10T00:48:55.170Z,51.95
2017-04-10T00:49:55.197Z,57.08
2017-04-10T00:50:56.034Z,60.47
2017-04-10T00:51:56.094Z,55.50
2017-04-10T00:52:56.899Z,61.47
2017-04-10T00:53:57.310Z,55.37
2017-04-10T00:54:57.311Z,62.95
2017-04-10T00:55:58.045Z,56.97
2017-04-10T00:56:58.083Z,63.97
2017-04-10T00:57:58.143Z,59.32
2017-04-10T00:58:59.374Z,63.50
2017-04-10T01:00:00.212Z,54.65
2017-04-10T01:01:00.301Z,57.28
2017-04-10T01:02:01.045Z,61.57
2017-04-10T01:03:01.076Z,50.93
2017-04-10T01:04:01.561Z,54.00
2017-04-10T01:05:01.600Z,63.68
2017-04-10T01:06:01.626Z,59.88
2017-04-10T01:07:01.668Z,58.80
2017-04-10T01:08:02.413Z,59.35
2017-04-10T01:09:03.643Z,49.75
2017-04-10T01:10:03.737Z,65.88
2017-04-10T01:11:04.524Z,65.03
2017-04-10T01:12:04.580Z,56.48
2017-04-10T01:13:05.555Z,58.08
2017-04-10T01:14:05.914Z,56.17
2017-04-10T01:15:06.822Z,57.07
2017-04-10T01:16:06.889Z,54.72
2017-04-10T01:17:06.971Z,55.00
2017-04-10T01:18:07.035Z,61.95
2017-04-10T01:19:07.219Z,57.67
2017-04-10T01:20:07.219Z,63.82
2017-04-10T01:21:07.309Z,61.42
2017-04-10T01:22:07.314Z,58.12
2017-04-10T01:23:07.445Z,60.42
2017-04-10T01:24:07.953Z,66.98
2017-04-10T01:25:08.097Z,62.87
2017-04-10T01:26:08.718Z,62.50
2017-04-10T01:27:08.797Z,63.30
2017-04-10T01:28:09.703Z,62.65
2017-04-10T01:29:10.025Z,64.13
2017-04-10T01:30:10.431Z,62.20
2017-04-10T01:31:10.542Z,60.50
2017-04-10T01:32:11.327Z,55.83
2017-04-10T01:33:11.350Z,62.90
2017-04-10T01:34:11.728Z,63.10
2017-04-10T01:35:11.743Z,60.12
2017-04-10T01:36:11.865Z,60.77
2017-04-10T01:37:11.881Z,58.65
2017-04-10T01:38:11.902Z,62.87
2017-04-10T01:39:12.324Z,68.57
2017-04-10T01:40:12.356Z,66.38
2017-04-10T01:41:12.341Z,61.62
2017-04-10T01:42:13.205Z,65.42
2017-04-10T01:43:19.913Z,66.23
2017-04-10T01:44:20.665Z,62.78
2017-04-10T01:45:21.453Z,64.98
2017-04-10T01:46:21.501Z,58.85
2017-04-10T01:47:21.545Z,60.47
2017-04-10T01:48:21.528Z,66.03
2017-04-10T01:49:21.836Z,80.48
2017-04-10T01:50:21.903Z,64.73
2017-04-10T01:51:22.684Z,60.37
2017-04-10T01:52:22.704Z,69.33
2017-04-10T01:53:22.794Z,69.48
2017-04-10T01:54:23.269Z,60.83
2017-04-10T01:55:24.072Z,58.98
2017-04-10T01:56:24.245Z,71.75
2017-04-10T01:57:24.348Z,61.88
2017-04-10T01:58:24.400Z,67.93
2017-04-10T01:59:24.851Z,70.88
2017-04-10T02:00:24.945Z,73.03
2017-04-10T02:01:25.712Z,63.63
2017-04-10T02:02:25.767Z,60.67
2017-04-10T02:03:25.837Z,69.17
2017-04-10T02:04:26.221Z,61.13
2017-04-10T02:05:26.285Z,61.47
2017-04-10T02:06:26.342Z,62.32
2017-04-10T02:07:26.718Z,61.35
2017-04-10T02:08:26.712Z,65.60
2017-04-10T02:09:27.042Z,61.23
2017-04-10T02:10:27.831Z,67.78
2017-04-10T02:11:27.874Z,62.33
2017-04-10T02:12:27.902Z,65.10
2017-04-10T02:13:28.662Z,61.07
2017-04-10T02:14:29.133Z,60.52
2017-04-10T02:15:29.937Z,66.00
2017-04-10T02:16:29.995Z,61.10
2017-04-10T02:17:30.030Z,67.17
2017-04-10T02:18:30.065Z,62.82
2017-04-10T02:19:30.422Z,74.28
2017-04-10T02:20:30.433Z,59.50
2017-04-10T02:21:30.454Z,68.52
2017-04-10T02:22:30.569Z,67.08
2017-04-10T02:23:30.772Z,64.68
2017-04-10T02:24:31.115Z,59.27
2017-04-10T02:25:31.287Z,63.02
2017-04-10T02:26:31.252Z,60.38
2017-04-10T02:27:32.070Z,62.90
2017-04-10T02:28:32.106Z,64.05
2017-04-10T02:29:32.498Z,63.33
2017-04-10T02:30:32.539Z,63.25
2017-04-10T02:31:32.538Z,67.98
2017-04-10T02:32:32.603Z,64.92
2017-04-10T02:33:32.795Z,61.83
2017-04-10T02:34:32.946Z,65.88
2017-04-10T02:35:32.962Z,74.10
2017-04-10T02:36:33.711Z,55.52
2017-04-10T02:37:33.711Z,65.70
2017-04-10T02:38:33.737Z,65.58
2017-04-10T02:39:34.126Z,70.43
2017-04-10T02:40:34.827Z,66.12
2017-04-10T02:41:35.594Z,63.92
2017-04-10T02:42:35.628Z,67.18
2017-04-10T02:43:35.715Z,60.02
2017-04-10T02:44:36.074Z,63.62
2017-04-10T02:45:36.258Z,66.03
2017-04-10T02:46:36.243Z,66.67
2017-04-10T02:47:36.267Z,65.12
2017-04-10T02:48:36.251Z,66.60
2017-04-10T02:49:36.835Z,63.50
2017-04-10T02:50:37.634Z,69.27
2017-04-10T02:51:37.687Z,60.88
2017-04-10T02:52:37.692Z,56.97
2017-04-10T02:53:37.842Z,58.05
2017-04-10T02:54:38.182Z,60.90
2017-04-10T02:55:38.245Z,73.47
2017-04-10T02:56:38.226Z,69.35
2017-04-10T02:57:38.247Z,63.45
2017-04-10T02:58:38.267Z,62.63
2017-04-10T02:59:38.657Z,63.60
2017-04-10T03:00:39.262Z,57.40
2017-04-10T03:01:40.043Z,60.47
2017-04-10T03:02:40.011Z,59.73
2017-04-10T03:03:40.042Z,56.30
2017-04-10T03:04:40.474Z,66.82
2017-04-10T03:05:40.503Z,62.18
2017-04-10T03:06:41.482Z,59.47
2017-04-10T03:07:41.515Z,62.80
2017-04-10T03:08:41.555Z,58.10
2017-04-10T03:09:42.687Z,63.80
2017-04-10T03:10:43.600Z,55.88
2017-04-10T03:11:44.766Z,64.88
2017-04-10T03:12:45.636Z,68.17
2017-04-10T03:13:45.662Z,67.22
2017-04-10T03:14:46.214Z,61.22
2017-04-10T03:15:47.051Z,62.87
2017-04-10T03:16:47.094Z,57.15
2017-04-10T03:17:47.154Z,68.52
2017-04-10T03:18:48.018Z,62.45
2017-04-10T03:19:48.386Z,69.83
2017-04-10T03:20:50.096Z,70.20
2017-04-10T03:21:50.397Z,59.97
2017-04-10T03:22:50.694Z,64.08
2017-04-10T03:23:51.558Z,62.67
2017-04-10T03:24:52.014Z,67.78
2017-04-10T03:25:52.750Z,66.53
2017-04-10T03:26:52.798Z,58.07
2017-04-10T03:27:52.847Z,61.07
2017-04-10T03:28:53.634Z,63.40
2017-04-10T03:29:53.971Z,56.27
2017-04-10T03:30:54.038Z,62.95
2017-04-10T03:31:54.076Z,54.50
2017-04-10T03:32:54.133Z,60.48
2017-04-10T03:33:54.202Z,59.33
2017-04-10T03:34:54.572Z,56.90
2017-04-10T03:35:54.714Z,60.95
2017-04-10T03:36:54.884Z,59.33
2017-04-10T03:37:54.994Z,68.73
2017-04-10T03:38:55.012Z,56.15
2017-04-10T03:39:55.340Z,63.22
2017-04-10T03:40:55.407Z,57.07
2017-04-10T03:41:55.424Z,65.27
2017-04-10T03:42:55.446Z,63.12
2017-04-10T03:43:55.443Z,67.70
2017-04-10T03:44:55.878Z,60.43
2017-04-10T03:45:55.902Z,61.63
2017-04-10T03:46:56.798Z,61.00
2017-04-10T03:47:56.941Z,65.50
2017-04-10T03:48:56.978Z,59.05
2017-04-10T03:49:57.389Z,55.87
2017-04-10T03:50:58.175Z,62.35
2017-04-10T03:51:58.937Z,52.53
2017-04-10T03:52:59.745Z,57.27
2017-04-10T03:53:59.874Z,63.63
2017-04-10T03:55:01.019Z,63.62
2017-04-10T03:56:01.098Z,62.58
2017-04-10T03:57:01.266Z,63.77
2017-04-10T03:58:01.286Z,64.08
2017-04-10T03:59:01.283Z,60.22
2017-04-10T04:00:01.660Z,54.12
2017-04-10T04:01:01.748Z,62.02
2017-04-10T04:02:01.752Z,60.38
2017-04-10T04:03:01.840Z,63.80
2017-04-10T04:04:02.411Z,68.72
2017-04-10T04:05:02.711Z,64.93
2017-04-10T04:06:03.533Z,63.60
2017-04-10T04:07:03.583Z,57.58
2017-04-10T04:08:03.599Z,66.98
2017-04-10T04:09:03.719Z,69.58
2017-04-10T04:10:04.183Z,57.17
2017-04-10T04:11:05.037Z,54.03
2017-04-10T04:12:05.127Z,55.23
2017-04-10T04:13:05.245Z,62.03
2017-04-10T04:14:05.422Z,57.88
2017-04-10T04:15:06.807Z,60.63
2017-04-10T04:16:06.879Z,67.05
2017-04-10T04:17:07.842Z,63.42
2017-04-10T04:18:08.434Z,59.15
2017-04-10T04:19:09.251Z,68.87
2017-04-10T04:20:10.494Z,72.42
2017-04-10T04:21:10.626Z,68.62
2017-04-10T04:22:10.642Z,66.22
2017-04-10T04:23:10.727Z,65.12
2017-04-10T04:24:12.083Z,72.88
2017-04-10T04:25:12.508Z,76.17
2017-04-10T04:26:12.542Z,77.30
2017-04-10T04:27:12.687Z,69.85
2017-04-10T04:28:12.730Z,65.83
2017-04-10T04:29:12.810Z,69.50
2017-04-10T04:30:13.318Z,64.72
2017-04-10T04:31:13.782Z,66.60
2017-04-10T04:32:13.842Z,67.18
2017-04-10T04:33:13.886Z,64.42
2017-04-10T04:34:13.926Z,66.08
2017-04-10T04:35:14.277Z,62.60
2017-04-10T04:36:14.421Z,77.18
2017-04-10T04:37:14.427Z,66.37
2017-04-10T04:38:14.474Z,66.98
2017-04-10T04:39:14.470Z,65.48
2017-04-10T04:40:14.800Z,79.15
2017-04-10T04:41:14.874Z,66.72
2017-04-10T04:42:14.901Z,68.70
2017-04-10T04:43:14.938Z,77.43
2017-04-10T04:44:15.696Z,75.35
2017-04-10T04:45:16.269Z,63.80
2017-04-10T04:47:23.457Z,71.70
2017-04-10T04:48:24.251Z,63.42
2017-04-10T04:49:24.427Z,61.87
2017-04-10T04:50:24.503Z,71.25
2017-04-10T04:51:25.314Z,69.57
2017-04-10T04:52:25.412Z,69.42
2017-04-10T04:53:25.397Z,72.03
2017-04-10T04:54:25.446Z,61.13
2017-04-10T04:55:26.236Z,65.57
2017-04-10T04:56:26.287Z,70.03
2017-04-10T04:57:26.354Z,73.70
2017-04-10T04:58:26.413Z,80.18
2017-04-10T04:59:26.531Z,63.80
2017-04-10T05:00:27.132Z,68.75
2017-04-10T05:01:27.218Z,70.80
2017-04-10T05:02:27.351Z,71.65
2017-04-10T05:03:27.514Z,71.13
2017-04-10T05:04:27.724Z,78.42
2017-04-10T05:05:28.321Z,76.05
2017-04-10T05:06:29.202Z,79.32
2017-04-10T05:07:29.310Z,75.92
2017-04-10T05:08:29.400Z,72.87
2017-04-10T05:09:29.478Z,66.23
2017-04-10T05:10:29.949Z,71.92
2017-04-10T05:11:30.753Z,72.82
2017-04-10T05:12:30.874Z,67.85
2017-04-10T05:13:30.962Z,71.22
2017-04-10T05:14:31.247Z,88.02
2017-04-10T05:15:31.630Z,76.15
2017-04-10T05:16:31.790Z,73.15
2017-04-10T05:17:31.977Z,74.75
2017-04-10T05:18:32.082Z,65.98
2017-04-10T05:19:32.402Z,68.57
2017-04-10T05:20:32.879Z,73.43
2017-04-10T05:21:32.903Z,82.60
2017-04-10T05:22:34.653Z,79.90
2017-04-10T05:23:34.869Z,73.05
2017-04-10T05:24:34.919Z,71.57
2017-04-10T05:25:35.475Z,78.22
2017-04-10T05:26:35.498Z,88.70
2017-04-10T05:27:36.310Z,74.45
2017-04-10T05:28:36.352Z,80.28
2017-04-10T05:29:36.499Z,66.67
2017-04-10T05:30:37.066Z,66.60
2017-04-10T05:31:37.087Z,72.65
2017-04-10T05:32:37.148Z,74.53
2017-04-10T05:33:37.216Z,80.25
2017-04-10T05:34:37.295Z,68.63
2017-04-10T05:35:38.177Z,77.35
2017-04-10T05:36:38.266Z,70.90
2017-04-10T05:37:38.297Z,83.58
2017-04-10T05:38:38.473Z,84.77
2017-04-10T05:39:38.610Z,74.37
2017-04-10T05:40:39.373Z,74.62
2017-04-10T05:41:39.467Z,76.10
2017-04-10T05:42:40.001Z,64.08
2017-04-10T05:43:40.097Z,84.42
2017-04-10T05:44:40.140Z,86.68
2017-04-10T05:45:40.518Z,81.43
2017-04-10T05:46:40.548Z,79.75
2017-04-10T05:47:40.600Z,83.45
2017-04-10T05:48:40.708Z,92.30
2017-04-10T05:49:40.834Z,79.25
2017-04-10T05:50:41.283Z,84.73
2017-04-10T05:51:41.361Z,76.00
2017-04-10T05:52:41.609Z,87.23
2017-04-10T05:53:41.785Z,79.35
2017-04-10T05:54:41.831Z,86.03
2017-04-10T05:55:42.320Z,79.28
2017-04-10T05:56:43.130Z,86.53
2017-04-10T05:57:43.225Z,88.35
2017-04-10T05:58:43.473Z,84.92
2017-04-10T05:59:44.488Z,83.82
2017-04-10T06:00:45.732Z,95.98
2017-04-10T06:01:46.736Z,75.62
2017-04-10T06:02:46.852Z,92.93
2017-04-10T06:03:46.981Z,85.92
2017-04-10T06:04:47.737Z,81.00
2017-04-10T06:05:48.105Z,72.95
2017-04-10T06:06:48.283Z,78.22
2017-04-10T06:07:48.244Z,80.18
2017-04-10T06:08:48.316Z,93.82
2017-04-10T06:09:48.562Z,69.97
2017-04-10T06:10:49.073Z,83.10
2017-04-10T06:11:49.204Z,69.92
2017-04-10T06:12:49.307Z,70.93
2017-04-10T06:13:50.238Z,79.73
2017-04-10T06:14:50.319Z,72.65
2017-04-10T06:15:50.731Z,75.45
2017-04-10T06:16:51.005Z,71.30
2017-04-10T06:17:51.057Z,82.88
2017-04-10T06:18:51.123Z,64.45
2017-04-10T06:19:51.273Z,70.07
2017-04-10T06:20:52.116Z,64.60
2017-04-10T06:21:52.986Z,72.08
2017-04-10T06:22:53.133Z,73.38
2017-04-10T06:23:53.961Z,61.88
2017-04-10T06:24:54.772Z,58.55
2017-04-10T06:25:55.236Z,68.90
2017-04-10T06:26:55.293Z,63.83
2017-04-10T06:27:55.483Z,58.28
2017-04-10T06:28:55.609Z,61.30
2017-04-10T06:29:56.371Z,66.13
2017-04-10T06:30:56.894Z,55.72
2017-04-10T06:31:57.060Z,57.08
2017-04-10T06:32:57.162Z,46.80
2017-04-10T06:33:57.225Z,64.80
2017-04-10T06:34:57.355Z,73.10
2017-04-10T06:35:57.829Z,54.87
2017-04-10T06:36:58.469Z,62.62
2017-04-10T06:37:58.570Z,60.42
2017-04-10T06:38:59.391Z,62.17
2017-04-10T06:39:59.441Z,61.50
2017-04-10T06:40:59.769Z,54.52
2017-04-10T06:41:59.899Z,51.50
2017-04-10T06:43:00.130Z,54.83
2017-04-10T06:44:00.954Z,44.35
2017-04-10T06:45:01.128Z,46.70
2017-04-10T06:46:02.311Z,59.90
2017-04-10T06:47:03.167Z,55.90
2017-04-10T06:48:03.293Z,56.80
2017-04-10T06:49:03.323Z,51.83
2017-04-10T06:50:03.525Z,54.02
2017-04-10T06:51:03.986Z,55.90
2017-04-10T06:52:04.074Z,55.38
2017-04-10T06:53:04.718Z,50.58
2017-04-10T06:54:04.713Z,55.68
2017-04-10T06:55:05.539Z,49.93
2017-04-10T06:56:06.702Z,56.00
2017-04-10T06:57:06.869Z,54.77
2017-04-10T06:58:06.975Z,38.85
2017-04-10T06:59:07.010Z,51.67
2017-04-10T07:00:07.143Z,55.40
2017-04-10T07:01:07.527Z,48.12
2017-04-10T07:02:07.991Z,42.58
2017-04-10T07:03:09.117Z,42.20
2017-04-10T07:04:09.187Z,40.50
2017-04-10T07:05:09.246Z,58.33
2017-04-10T07:06:09.631Z,45.60
2017-04-10T07:07:09.796Z,54.47
2017-04-10T07:08:09.960Z,50.18
2017-04-10T07:09:10.043Z,52.40
2017-04-10T07:10:10.105Z,38.02
2017-04-10T07:11:10.542Z,44.05
2017-04-10T07:12:11.370Z,42.50
2017-04-10T07:13:11.538Z,30.87
2017-04-10T07:14:11.623Z,38.87
2017-04-10T07:15:11.726Z,43.12
2017-04-10T07:16:12.347Z,37.17
2017-04-10T07:17:12.610Z,35.00
2017-04-10T07:18:12.718Z,44.63
2017-04-10T07:19:12.784Z,43.07
2017-04-10T07:20:12.909Z,46.20
2017-04-10T07:21:14.639Z,35.38
2017-04-10T07:22:14.846Z,32.45
2017-04-10T07:23:15.155Z,35.83
2017-04-10T07:24:15.274Z,36.35
2017-04-10T07:25:15.378Z,37.88
2017-04-10T07:26:15.771Z,32.20
2017-04-10T07:27:16.049Z,35.57
2017-04-10T07:28:16.128Z,30.82
2017-04-10T07:29:16.262Z,46.43
2017-04-10T07:30:16.322Z,24.50
2017-04-10T07:31:16.523Z,26.45
2017-04-10T07:32:16.688Z,30.25
2017-04-10T07:33:16.805Z,36.52
2017-04-10T07:34:17.338Z,31.67
2017-04-10T07:35:17.457Z,55.95
2017-04-10T07:36:17.878Z,36.72
2017-04-10T07:37:18.957Z,28.85
2017-04-10T07:38:19.117Z,33.18
2017-04-10T07:39:19.983Z,30.30
2017-04-10T07:40:20.000Z,31.47
2017-04-10T07:41:21.027Z,28.42
2017-04-10T07:42:21.154Z,30.33
2017-04-10T07:43:21.269Z,42.92
2017-04-10T07:44:21.355Z,29.15
2017-04-10T07:45:21.527Z,30.83
2017-04-10T07:46:21.955Z,33.07
2017-04-10T07:47:22.071Z,23.83
2017-04-10T07:48:22.169Z,22.92
2017-04-10T07:49:22.362Z,25.85
2017-04-10T07:50:23.182Z,24.72
2017-04-10T07:51:23.510Z,29.43
2017-04-10T07:52:24.306Z,23.32
2017-04-10T07:53:24.384Z,28.18
2017-04-10T07:54:24.483Z,29.08
2017-04-10T07:55:24.548Z,26.18
2017-04-10T07:56:25.788Z,20.23
2017-04-10T07:57:26.134Z,33.77
2017-04-10T07:58:26.215Z,28.28
2017-04-10T07:59:26.294Z,26.18
2017-04-10T08:00:26.406Z,25.78
2017-04-10T08:01:26.946Z,23.08
2017-04-10T08:02:27.894Z,28.33
2017-04-10T08:03:28.005Z,16.37
2017-04-10T08:04:28.088Z,23.95
2017-04-10T08:05:29.005Z,35.55
2017-04-10T08:06:29.533Z,29.80
2017-04-10T08:07:29.676Z,25.43
2017-04-10T08:08:29.750Z,21.15
2017-04-10T08:09:29.842Z,34.12
2017-04-10T08:10:29.910Z,27.53
2017-04-10T08:11:30.349Z,27.73
2017-04-10T08:12:30.465Z,24.90
2017-04-10T08:13:30.605Z,31.27
2017-04-10T08:14:30.778Z,25.02
2017-04-10T08:15:30.886Z,34.25
2017-04-10T08:16:31.385Z,31.20
2017-04-10T08:17:31.498Z,27.95
2017-04-10T08:18:31.623Z,23.47
2017-04-10T08:19:31.757Z,23.42
2017-04-10T08:20:32.545Z,45.45
2017-04-10T08:21:33.015Z,31.97
2017-04-10T08:22:33.885Z,25.78
2017-04-10T08:23:34.134Z,32.53
2017-04-10T08:24:34.235Z,27.15
2017-04-10T08:25:34.314Z,25.30
2017-04-10T08:26:34.810Z,22.77
2017-04-10T08:27:35.661Z,26.83
2017-04-10T08:28:35.777Z,23.53
2017-04-10T08:29:35.845Z,30.57
2017-04-10T08:30:36.686Z,22.95
2017-04-10T08:31:37.179Z,13.28
2017-04-10T08:32:38.087Z,18.63
2017-04-10T08:33:38.990Z,17.53
2017-04-10T08:34:39.072Z,24.37
2017-04-10T08:35:39.246Z,13.27
2017-04-10T08:36:40.478Z,19.88
2017-04-10T08:37:40.650Z,24.78
2017-04-10T08:38:40.798Z,29.55
2017-04-10T08:39:41.036Z,30.13
2017-04-10T08:40:41.101Z,21.62
2017-04-10T08:41:41.486Z,27.07
2017-04-10T08:42:41.581Z,14.52
2017-04-10T08:43:46.116Z,16.12
2017-04-10T08:44:46.250Z,20.73
2017-04-10T08:45:46.368Z,23.20
2017-04-10T08:46:46.761Z,19.35
2017-04-10T08:47:48.929Z,25.32
2017-04-10T08:48:49.036Z,16.03
2017-04-10T08:49:49.122Z,16.55
2017-04-10T08:50:49.253Z,13.68
2017-04-10T08:51:49.713Z,29.32
2017-04-10T08:52:50.581Z,16.22
2017-04-10T08:53:50.690Z,20.58
2017-04-10T08:54:50.822Z,10.82
2017-04-10T08:55:50.971Z,13.55
2017-04-10T08:56:52.306Z,8.77
2017-04-10T08:57:52.491Z,7.65
2017-04-10T08:58:52.604Z,16.33
2017-04-10T08:59:53.478Z,10.12
2017-04-10T09:00:53.659Z,15.58
2017-04-10T09:01:54.086Z,10.95
2017-04-10T09:02:54.127Z,9.22
2017-04-10T09:03:54.148Z,11.88
2017-04-10T09:04:54.315Z,12.35
2017-04-10T09:05:54.334Z,14.97
2017-04-10T09:06:54.699Z,10.05
2017-04-10T09:07:55.885Z,10.23
2017-04-10T09:08:56.119Z,7.47
2017-04-10T09:09:56.247Z,16.75
2017-04-10T09:10:57.149Z,7.32
2017-04-10T09:11:57.559Z,12.13
2017-04-10T09:12:57.766Z,8.15
2017-04-10T09:13:58.417Z,7.38
2017-04-10T09:14:58.547Z,11.95
2017-04-10T09:15:58.806Z,8.50
2017-04-10T09:16:59.307Z,12.42
2017-04-10T09:17:59.434Z,10.72
2017-04-10T09:18:59.494Z,14.78
2017-04-10T09:20:00.271Z,14.50
2017-04-10T09:21:00.368Z,9.73
2017-04-10T09:22:00.859Z,14.22
2017-04-10T09:23:00.973Z,10.47
2017-04-10T09:24:01.107Z,12.62
2017-04-10T09:25:01.218Z,5.65
2017-04-10T09:26:01.311Z,12.93
2017-04-10T09:27:01.663Z,8.73
2017-04-10T09:28:01.869Z,14.53
2017-04-10T09:29:01.965Z,9.30
2017-04-10T09:30:02.139Z,14.22
2017-04-10T09:31:02.365Z,4.55
2017-04-10T09:32:02.726Z,10.53
2017-04-10T09:33:02.870Z,4.03
2017-04-10T09:34:02.920Z,14.02
2017-04-10T09:35:03.117Z,9.65
2017-04-10T09:36:03.970Z,12.22
2017-04-10T09:37:04.440Z,9.72
2017-04-10T09:38:04.497Z,8.67
2017-04-10T09:39:04.833Z,6.12
2017-04-10T09:40:05.134Z,13.05
2017-04-10T09:41:05.201Z,8.87
2017-04-10T09:42:05.669Z,11.10
2017-04-10T09:43:05.967Z,9.77
2017-04-10T09:44:06.144Z,6.63
2017-04-10T09:45:06.253Z,7.10
2017-04-10T09:46:06.318Z,5.87
2017-04-10T09:47:07.453Z,10.08
2017-04-10T09:48:07.585Z,10.88
2017-04-10T09:49:14.415Z,8.33
2017-04-10T09:50:14.629Z,9.18
2017-04-10T09:51:15.506Z,6.23
2017-04-10T09:52:15.964Z,5.50
2017-04-10T09:53:16.155Z,4.83
2017-04-10T09:54:16.227Z,10.68
2017-04-10T09:55:16.411Z,10.75
2017-04-10T09:56:16.566Z,5.82
2017-04-10T09:57:17.340Z,6.70
2017-04-10T09:58:17.690Z,8.13
2017-04-10T09:59:17.873Z,9.82
2017-04-10T10:00:18.702Z,7.87
2017-04-10T10:01:19.544Z,7.37
2017-04-10T10:02:19.930Z,10.30
2017-04-10T10:03:20.258Z,4.90
2017-04-10T10:04:20.428Z,9.82
2017-04-10T10:05:21.054Z,13.27
2017-04-10T10:06:21.222Z,11.55
2017-04-10T10:07:21.839Z,18.32
2017-04-10T10:08:22.055Z,14.73
2017-04-10T10:09:22.176Z,5.80
2017-04-10T10:10:22.244Z,5.90
2017-04-10T10:11:22.327Z,10.73
2017-04-10T10:12:22.661Z,10.70
2017-04-10T10:13:22.776Z,6.37
2017-04-10T10:14:22.919Z,9.27
2017-04-10T10:15:22.966Z,7.53
2017-04-10T10:16:23.112Z,9.65
2017-04-10T10:17:23.638Z,12.00
2017-04-10T10:18:23.941Z,9.02
2017-04-10T10:19:24.750Z,17.07
2017-04-10T10:20:24.837Z,9.98
2017-04-10T10:21:25.028Z,12.63
2017-04-10T10:22:25.476Z,12.97
2017-04-10T10:23:25.610Z,14.40
2017-04-10T10:24:25.716Z,10.07
2017-04-10T10:25:25.771Z,8.27
2017-04-10T10:26:25.825Z,8.55
2017-04-10T10:27:26.911Z,9.65
2017-04-10T10:28:27.700Z,11.38
2017-04-10T10:29:27.799Z,4.95
2017-04-10T10:30:27.924Z,7.32
2017-04-10T10:31:28.022Z,12.47
2017-04-10T10:32:28.658Z,5.83
2017-04-10T10:33:29.166Z,12.87
2017-04-10T10:34:29.551Z,6.98
2017-04-10T10:35:29.628Z,11.20
2017-04-10T10:36:30.018Z,5.98
2017-04-10T10:37:30.500Z,10.18
2017-04-10T10:38:31.158Z,11.15
2017-04-10T10:39:31.284Z,12.40
2017-04-10T10:40:31.330Z,10.00
2017-04-10T10:41:32.175Z,8.53
2017-04-10T10:42:32.819Z,16.88
2017-04-10T10:43:32.990Z,8.83
2017-04-10T10:44:33.038Z,7.05
2017-04-10T10:45:33.107Z,7.27
2017-04-10T10:46:34.109Z,10.52
2017-04-10T10:47:34.799Z,9.15
2017-04-10T10:48:35.044Z,8.25
2017-04-10T10:49:35.228Z,8.23
2017-04-10T10:50:35.419Z,14.37
2017-04-10T10:51:35.468Z,9.22
2017-04-10T10:52:35.970Z,10.62
2017-04-10T10:53:36.109Z,10.75
2017-04-10T10:54:36.224Z,8.72
2017-04-10T10:55:37.070Z,7.12
2017-04-10T10:56:37.132Z,8.47
2017-04-10T10:57:37.698Z,11.80
2017-04-10T10:58:38.518Z,14.02
2017-04-10T10:59:48.374Z,10.00
2017-04-10T11:00:48.447Z,9.58
2017-04-10T11:01:48.567Z,5.58
2017-04-10T11:02:49.002Z,9.47
2017-04-10T11:03:50.100Z,6.03
2017-04-10T11:04:50.269Z,8.30
2017-04-10T11:05:50.518Z,14.52
2017-04-10T11:06:50.623Z,4.60
2017-04-10T11:07:51.079Z,7.58
2017-04-10T11:08:51.237Z,9.70
2017-04-10T11:09:51.432Z,11.38
2017-04-10T11:10:51.506Z,6.33
2017-04-10T11:11:52.368Z,11.80
2017-04-10T11:12:52.786Z,10.23
2017-04-10T11:13:52.900Z,13.87
2017-04-10T11:14:53.021Z,8.48
2017-04-10T11:15:53.096Z,7.63
2017-04-10T11:16:53.193Z,13.77
2017-04-10T11:17:53.544Z,12.97
2017-04-10T11:18:53.588Z,9.95
2017-04-10T11:19:53.698Z,17.30
2017-04-10T11:20:53.742Z,7.00
2017-04-10T11:21:53.777Z,10.18
2017-04-10T11:22:54.176Z,7.67
2017-04-10T11:23:54.765Z,6.80
2017-04-10T11:24:55.642Z,6.13
2017-04-10T11:25:55.704Z,7.77
2017-04-10T11:26:55.759Z,8.65
2017-04-10T11:27:56.157Z,15.62
2017-04-10T11:28:56.263Z,10.53
2017-04-10T11:29:56.582Z,7.28
2017-04-10T11:30:56.704Z,6.93
2017-04-10T11:31:58.285Z,10.33
2017-04-10T11:32:58.669Z,5.53
2017-04-10T11:33:58.793Z,9.92
2017-04-10T11:34:58.945Z,16.60
2017-04-10T11:35:59.316Z,6.00
2017-04-10T11:36:59.519Z,14.48
2017-04-10T11:38:00.096Z,14.77
2017-04-10T11:39:00.208Z,7.30
2017-04-10T11:52:55.578Z,20.05
2017-04-10T11:53:55.793Z,13.93
2017-04-10T11:54:56.155Z,9.87
2017-04-10T11:55:56.381Z,8.93
2017-04-10T11:56:57.200Z,4.72
2017-04-10T11:57:57.309Z,6.08
2017-04-10T11:58:57.529Z,15.95
2017-04-10T11:59:58.421Z,8.70
2017-04-10T12:00:58.513Z,11.17
2017-04-10T12:01:58.606Z,15.62
2017-04-10T12:02:58.735Z,10.33
2017-04-10T12:03:58.997Z,11.40
2017-04-10T12:05:00.242Z,12.55
2017-04-10T12:06:01.713Z,7.80
2017-04-10T12:07:01.783Z,9.55
2017-04-10T12:08:02.863Z,8.57
2017-04-10T12:09:03.115Z,11.17
2017-04-10T12:10:03.621Z,11.18
2017-04-10T12:11:04.546Z,3.78
2017-04-10T12:12:04.867Z,9.80
2017-04-10T12:13:05.149Z,5.05
2017-04-10T12:14:05.206Z,14.85
2017-04-10T12:15:06.052Z,7.32
2017-04-10T12:16:06.191Z,9.35
2017-04-10T12:17:06.289Z,10.27
2017-04-10T12:18:07.166Z,8.43
2017-04-10T12:19:07.464Z,7.18
2017-04-10T12:20:07.707Z,11.25
2017-04-10T12:21:09.169Z,14.60
2017-04-10T12:22:09.263Z,8.95
2017-04-10T12:23:10.077Z,10.13
2017-04-10T12:24:10.808Z,5.48
2017-04-10T12:25:12.059Z,6.27
2017-04-10T12:26:12.192Z,14.05
2017-04-10T12:27:12.470Z,13.80
2017-04-10T12:28:13.322Z,7.28
2017-04-10T12:29:13.514Z,6.48
2017-04-10T12:30:14.072Z,8.83
2017-04-10T12:31:14.267Z,13.68
2017-04-10T12:32:14.302Z,7.60
2017-04-10T12:33:14.442Z,6.13
2017-04-10T12:34:15.465Z,8.38
2017-04-10T12:35:16.475Z,14.25
2017-04-10T12:36:16.579Z,9.28
2017-04-10T12:37:16.671Z,11.72
2017-04-10T12:38:16.691Z,5.98
2017-04-10T12:39:16.855Z,6.53
2017-04-10T12:40:18.027Z,13.50
2017-04-10T12:41:18.082Z,9.10
2017-04-10T12:42:18.900Z,7.45
2017-04-10T12:43:19.338Z,5.72
2017-04-10T12:44:20.225Z,8.70
2017-04-10T12:45:20.765Z,7.05
2017-04-10T12:46:21.565Z,4.28
2017-04-10T12:47:21.733Z,7.10
2017-04-10T12:48:21.828Z,6.92
2017-04-10T12:49:22.775Z,7.53
2017-04-10T12:50:23.288Z,6.32
2017-04-10T12:51:23.443Z,14.82
2017-04-10T12:52:23.572Z,6.88
2017-04-10T12:53:23.686Z,11.67
2017-04-10T12:54:23.930Z,4.93
2017-04-10T12:55:24.359Z,15.48
2017-04-10T12:56:24.477Z,6.32
2017-04-10T12:57:24.516Z,4.43
2017-04-10T12:58:24.707Z,11.42
2017-04-10T12:59:24.803Z,8.15
2017-04-10T13:00:25.457Z,10.85
2017-04-10T13:01:26.318Z,8.32
2017-04-10T13:02:26.618Z,7.35
2017-04-10T13:03:27.454Z,9.23
2017-04-10T13:04:28.573Z,6.58
2017-04-10T13:05:29.715Z,10.32
2017-04-10T13:06:29.819Z,25.87
2017-04-10T13:07:30.730Z,6.15
2017-04-10T13:08:31.558Z,7.63
2017-04-10T13:09:31.678Z,6.73
2017-04-10T13:10:32.206Z,8.63
2017-04-10T13:11:32.914Z,3.38
2017-04-10T13:12:33.060Z,7.92
2017-04-10T13:13:33.247Z,9.10
2017-04-10T13:14:34.256Z,5.45
2017-04-10T13:15:35.392Z,7.02
2017-04-10T13:16:36.225Z,4.70